createdAt,value
2023-04-16T00:03:05.038Z,22.43
2023-04-16T00:13:06.991Z,22.46
2023-04-16T00:23:09.190Z,22.38
2023-04-16T00:33:10.816Z,22.45
2023-04-16T00:43:22.200Z,22.44
2023-04-16T00:53:24.792Z,22.42
2023-04-16T01:03:44.143Z,22.42
2023-04-16T01:13:46.228Z,22.42
2023-04-16T01:23:48.568Z,22.38
2023-04-16T01:33:50.350Z,22.33
2023-04-16T01:43:52.589Z,22.33
2023-04-16T01:53:55.296Z,22.38
2023-04-16T02:03:58.291Z,22.35
2023-04-16T02:14:01.195Z,22.32
2023-04-16T02:24:03.307Z,22.37
2023-04-16T02:34:05.505Z,22.35
2023-04-16T02:44:07.360Z,22.34
2023-04-16T02:54:09.604Z,22.27
2023-04-16T03:04:11.709Z,22.23
2023-04-16T03:14:13.726Z,22.30
2023-04-16T03:24:15.953Z,22.28
2023-04-16T03:34:17.652Z,22.29
2023-04-16T03:44:20.038Z,22.24
2023-04-16T03:54:23.024Z,22.30
2023-04-16T04:04:25.463Z,22.27
2023-04-16T04:14:27.420Z,22.25
2023-04-16T04:24:29.535Z,22.26
2023-04-16T04:34:31.447Z,22.24
2023-04-16T04:44:33.772Z,22.26
2023-04-16T04:54:36.096Z,22.27
2023-04-16T05:04:38.159Z,22.22
2023-04-16T05:14:40.156Z,22.25
2023-04-16T05:24:42.215Z,22.27
2023-04-16T05:34:43.847Z,22.32
2023-04-16T05:44:46.483Z,22.30
2023-04-16T05:54:48.549Z,22.31
2023-04-16T06:04:50.861Z,22.34
2023-04-16T06:14:52.783Z,22.34
2023-04-16T06:24:54.969Z,22.34
2023-04-16T06:34:58.757Z,22.37
2023-04-16T06:45:01.666Z,22.37
2023-04-16T06:55:03.466Z,22.43
2023-04-16T07:05:05.823Z,22.42
2023-04-16T07:15:09.032Z,22.43
2023-04-16T07:25:11.693Z,22.42
2023-04-16T07:35:13.427Z,22.37
2023-04-16T07:45:16.136Z,22.43
2023-04-16T07:55:18.119Z,22.45
2023-04-16T08:05:20.444Z,22.47
2023-04-16T08:15:22.367Z,22.47
2023-04-16T08:25:24.798Z,22.41
2023-04-16T08:35:26.992Z,22.44
2023-04-16T08:45:29.338Z,22.45
2023-04-16T08:55:46.956Z,22.41
2023-04-16T09:05:50.588Z,22.45
2023-04-16T09:15:54.029Z,22.45
2023-04-16T09:25:59.112Z,22.48
2023-04-16T09:36:00.935Z,22.43
2023-04-16T09:46:08.082Z,22.50
2023-04-16T09:56:12.442Z,22.41
2023-04-16T10:06:22.889Z,22.49
2023-04-16T10:20:51.847Z,22.61
2023-04-16T10:30:57.116Z,22.67
2023-04-16T10:41:09.375Z,22.69
2023-04-16T10:51:35.825Z,22.68
2023-04-16T11:01:44.429Z,22.63
2023-04-16T11:11:47.406Z,22.63
2023-04-16T11:21:51.091Z,22.60
2023-04-16T11:31:54.306Z,22.60
2023-04-16T11:41:56.146Z,22.51
2023-04-16T11:51:58.590Z,22.50
2023-04-16T12:02:00.542Z,22.55
2023-04-16T12:12:03.325Z,22.56
2023-04-16T12:22:05.590Z,22.52
2023-04-16T12:32:22.547Z,22.56
2023-04-16T12:42:24.233Z,22.53
2023-04-16T12:52:26.603Z,22.54
2023-04-16T13:02:28.537Z,22.51
2023-04-16T13:12:30.997Z,22.47
2023-04-16T13:22:33.740Z,22.50
2023-04-16T13:32:36.012Z,22.50
2023-04-16T13:42:37.700Z,22.51
2023-04-16T13:52:39.939Z,22.45
2023-04-16T14:02:45.931Z,22.48
2023-04-16T14:12:48.480Z,22.43
2023-04-16T14:22:50.511Z,22.49
2023-04-16T14:32:52.849Z,22.46
2023-04-16T14:42:54.445Z,22.45
2023-04-16T14:52:56.747Z,22.38
2023-04-16T15:02:58.960Z,22.43
2023-04-16T15:13:01.114Z,22.37
2023-04-16T15:23:03.962Z,22.41
2023-04-16T15:33:06.334Z,22.40
2023-04-16T15:43:13.654Z,22.39
2023-04-16T15:53:17.052Z,22.37
2023-04-16T16:03:19.101Z,22.33
2023-04-16T16:13:22.089Z,22.32
2023-04-16T16:23:24.226Z,22.39
2023-04-16T16:33:28.045Z,22.39
2023-04-16T16:43:29.694Z,22.31
2023-04-16T16:53:31.333Z,22.34
2023-04-16T17:03:34.444Z,22.35
2023-04-16T17:13:36.555Z,22.37
2023-04-16T17:23:41.004Z,22.39
2023-04-16T17:33:44.362Z,22.37
2023-04-16T17:43:51.810Z,22.39
2023-04-16T17:53:54.292Z,22.40
2023-04-16T18:03:56.690Z,22.37
2023-04-16T18:13:58.530Z,22.42
2023-04-16T18:24:03.464Z,22.42
2023-04-16T18:34:05.866Z,22.40
2023-04-16T18:44:07.632Z,22.47
2023-04-16T18:54:10.072Z,22.42
2023-04-16T19:04:12.146Z,22.47
2023-04-16T19:14:14.917Z,22.47
2023-04-16T19:24:18.811Z,22.43
2023-04-16T19:34:21.055Z,22.44
2023-04-16T19:44:23.240Z,22.51
2023-04-16T19:54:26.318Z,22.56
2023-04-16T20:04:28.967Z,22.54
2023-04-16T20:14:31.203Z,22.48
2023-04-16T20:24:33.203Z,22.50
2023-04-16T20:34:36.620Z,22.54
2023-04-16T20:44:41.630Z,22.51
2023-04-16T20:54:44.130Z,22.49
2023-04-16T21:04:46.884Z,22.50
2023-04-16T21:14:48.890Z,22.52
2023-04-16T21:24:50.954Z,22.52
2023-04-16T21:34:53.226Z,22.50
2023-04-16T21:44:56.277Z,22.47
2023-04-16T21:54:59.980Z,22.51
2023-04-16T22:05:02.506Z,22.52
2023-04-16T22:15:08.162Z,22.52
2023-04-16T22:25:11.374Z,22.54
2023-04-16T22:35:13.028Z,22.51
2023-04-16T22:45:15.311Z,22.50
2023-04-16T22:55:17.211Z,22.51
2023-04-16T23:05:19.280Z,22.44
2023-04-16T23:15:21.371Z,22.47
2023-04-16T23:25:23.935Z,22.51
2023-04-16T23:35:25.766Z,22.47
2023-04-16T23:45:27.436Z,22.52
2023-04-16T23:55:29.835Z,22.50
